sensor_id;sensor_type;location;lat;lon;timestamp;P1;durP1;ratioP1;P2;durP2;ratioP2
35048;SDS011;21236;48.740;-3.446;2022-11-21T00:03:38;29.67;;;5.88;;
35048;SDS011;21236;48.740;-3.446;2022-11-21T00:06:04;28.13;;;7.18;;
35048;SDS011;21236;48.740;-3.446;2022-11-21T00:08:31;37.63;;;8.20;;
35048;SDS011;21236;48.740;-3.446;2022-11-21T00:11:00;28.85;;;6.72;;
35048;SDS011;21236;48.740;-3.446;2022-11-21T00:13:26;32.25;;;6.05;;
35048;SDS011;21236;48.740;-3.446;2022-11-21T00:15:52;34.30;;;6.30;;
35048;SDS011;21236;48.740;-3.446;2022-11-21T00:18:18;24.80;;;5.78;;
35048;SDS011;21236;48.740;-3.446;2022-11-21T00:20:44;42.40;;;6.15;;
35048;SDS011;21236;48.740;-3.446;2022-11-21T00:23:10;41.50;;;7.43;;
35048;SDS011;21236;48.740;-3.446;2022-11-21T00:25:37;30.17;;;7.20;;
35048;SDS011;21236;48.740;-3.446;2022-11-21T00:28:04;41.40;;;6.82;;
35048;SDS011;21236;48.740;-3.446;2022-11-21T00:30:30;36.78;;;6.82;;
35048;SDS011;21236;48.740;-3.446;2022-11-21T00:32:59;34.42;;;6.00;;
35048;SDS011;21236;48.740;-3.446;2022-11-21T00:35:25;24.55;;;5.88;;
35048;SDS011;21236;48.740;-3.446;2022-11-21T00:37:51;34.67;;;5.43;;
35048;SDS011;21236;48.740;-3.446;2022-11-21T00:40:18;27.48;;;6.47;;
35048;SDS011;21236;48.740;-3.446;2022-11-21T00:42:44;24.30;;;5.82;;
35048;SDS011;21236;48.740;-3.446;2022-11-21T00:45:10;31.90;;;6.70;;
35048;SDS011;21236;48.740;-3.446;2022-11-21T00:47:36;31.15;;;6.38;;
35048;SDS011;21236;48.740;-3.446;2022-11-21T00:50:02;32.22;;;5.90;;
35048;SDS011;21236;48.740;-3.446;2022-11-21T00:52:28;22.90;;;5.82;;
35048;SDS011;21236;48.740;-3.446;2022-11-21T00:54:55;33.47;;;6.43;;
35048;SDS011;21236;48.740;-3.446;2022-11-21T00:57:21;25.20;;;5.88;;
35048;SDS011;21236;48.740;-3.446;2022-11-21T00:59:47;29.63;;;7.30;;
35048;SDS011;21236;48.740;-3.446;2022-11-21T01:02:13;30.13;;;5.78;;
35048;SDS011;21236;48.740;-3.446;2022-11-21T01:04:39;35.13;;;6.70;;
35048;SDS011;21236;48.740;-3.446;2022-11-21T01:07:05;32.17;;;7.78;;
35048;SDS011;21236;48.740;-3.446;2022-11-21T01:09:31;27.08;;;7.57;;
35048;SDS011;21236;48.740;-3.446;2022-11-21T01:11:57;36.65;;;6.25;;
35048;SDS011;21236;48.740;-3.446;2022-11-21T01:14:23;34.92;;;6.40;;
35048;SDS011;21236;48.740;-3.446;2022-11-21T01:16:49;31.95;;;6.22;;
35048;SDS011;21236;48.740;-3.446;2022-11-21T01:19:15;32.70;;;5.68;;
35048;SDS011;21236;48.740;-3.446;2022-11-21T01:21:42;32.42;;;6.32;;
35048;SDS011;21236;48.740;-3.446;2022-11-21T01:24:09;29.63;;;5.30;;
35048;SDS011;21236;48.740;-3.446;2022-11-21T01:26:36;30.75;;;6.03;;
35048;SDS011;21236;48.740;-3.446;2022-11-21T01:29:02;29.88;;;5.47;;
35048;SDS011;21236;48.740;-3.446;2022-11-21T01:31:29;39.08;;;6.32;;
35048;SDS011;21236;48.740;-3.446;2022-11-21T01:33:56;34.65;;;7.18;;
35048;SDS011;21236;48.740;-3.446;2022-11-21T01:36:23;35.00;;;5.40;;
35048;SDS011;21236;48.740;-3.446;2022-11-21T01:38:50;24.45;;;5.45;;
35048;SDS011;21236;48.740;-3.446;2022-11-21T01:41:18;37.58;;;6.95;;
35048;SDS011;21236;48.740;-3.446;2022-11-21T01:43:44;40.28;;;6.00;;
35048;SDS011;21236;48.740;-3.446;2022-11-21T01:46:18;33.00;;;5.88;;
35048;SDS011;21236;48.740;-3.446;2022-11-21T01:49:06;32.25;;;5.25;;
35048;SDS011;21236;48.740;-3.446;2022-11-21T01:56:38;33.50;;;6.45;;
35048;SDS011;21236;48.740;-3.446;2022-11-21T01:59:05;39.42;;;10.10;;
35048;SDS011;21236;48.740;-3.446;2022-11-21T02:01:33;23.73;;;4.82;;
35048;SDS011;21236;48.740;-3.446;2022-11-21T02:04:01;22.58;;;5.53;;
35048;SDS011;21236;48.740;-3.446;2022-11-21T02:06:27;26.67;;;5.70;;
35048;SDS011;21236;48.740;-3.446;2022-11-21T02:08:54;33.28;;;4.75;;
35048;SDS011;21236;48.740;-3.446;2022-11-21T02:11:26;28.88;;;4.85;;
35048;SDS011;21236;48.740;-3.446;2022-11-21T02:13:54;29.63;;;5.20;;
35048;SDS011;21236;48.740;-3.446;2022-11-21T02:16:21;23.08;;;4.50;;
35048;SDS011;21236;48.740;-3.446;2022-11-21T02:18:47;26.20;;;5.43;;
35048;SDS011;21236;48.740;-3.446;2022-11-21T02:24:03;33.55;;;4.82;;
35048;SDS011;21236;48.740;-3.446;2022-11-21T02:26:30;27.05;;;5.38;;
35048;SDS011;21236;48.740;-3.446;2022-11-21T02:28:57;30.83;;;5.90;;
35048;SDS011;21236;48.740;-3.446;2022-11-21T02:31:23;36.75;;;5.25;;
35048;SDS011;21236;48.740;-3.446;2022-11-21T02:33:49;31.98;;;6.60;;
35048;SDS011;21236;48.740;-3.446;2022-11-21T02:38:56;26.27;;;5.05;;
35048;SDS011;21236;48.740;-3.446;2022-11-21T02:41:22;30.83;;;4.75;;
35048;SDS011;21236;48.740;-3.446;2022-11-21T02:44:03;36.20;;;5.20;;
35048;SDS011;21236;48.740;-3.446;2022-11-21T02:46:30;32.50;;;4.90;;
35048;SDS011;21236;48.740;-3.446;2022-11-21T02:48:58;39.95;;;6.35;;
35048;SDS011;21236;48.740;-3.446;2022-11-21T02:51:24;40.33;;;6.35;;
35048;SDS011;21236;48.740;-3.446;2022-11-21T02:53:50;37.38;;;7.13;;
35048;SDS011;21236;48.740;-3.446;2022-11-21T02:56:16;26.67;;;5.25;;
35048;SDS011;21236;48.740;-3.446;2022-11-21T02:58:42;43.67;;;6.55;;
35048;SDS011;21236;48.740;-3.446;2022-11-21T03:01:09;33.25;;;5.32;;
35048;SDS011;21236;48.740;-3.446;2022-11-21T03:03:35;36.95;;;5.22;;
35048;SDS011;21236;48.740;-3.446;2022-11-21T03:06:01;38.22;;;7.68;;
35048;SDS011;21236;48.740;-3.446;2022-11-21T03:08:27;25.48;;;5.28;;
35048;SDS011;21236;48.740;-3.446;2022-11-21T03:10:53;37.72;;;6.70;;
35048;SDS011;21236;48.740;-3.446;2022-11-21T03:13:19;32.60;;;5.10;;
35048;SDS011;21236;48.740;-3.446;2022-11-21T03:15:45;26.25;;;4.88;;
35048;SDS011;21236;48.740;-3.446;2022-11-21T03:18:11;24.80;;;5.00;;
35048;SDS011;21236;48.740;-3.446;2022-11-21T03:20:37;40.58;;;5.63;;
35048;SDS011;21236;48.740;-3.446;2022-11-21T03:23:03;28.92;;;5.40;;
35048;SDS011;21236;48.740;-3.446;2022-11-21T03:25:30;34.65;;;5.70;;
35048;SDS011;21236;48.740;-3.446;2022-11-21T03:27:56;41.92;;;6.10;;
35048;SDS011;21236;48.740;-3.446;2022-11-21T03:30:23;37.90;;;5.97;;
35048;SDS011;21236;48.740;-3.446;2022-11-21T03:32:49;33.65;;;5.07;;
35048;SDS011;21236;48.740;-3.446;2022-11-21T03:35:15;31.30;;;4.95;;
35048;SDS011;21236;48.740;-3.446;2022-11-21T03:37:42;28.88;;;6.82;;
35048;SDS011;21236;48.740;-3.446;2022-11-21T03:40:08;29.70;;;4.82;;
35048;SDS011;21236;48.740;-3.446;2022-11-21T03:42:34;35.17;;;7.22;;
35048;SDS011;21236;48.740;-3.446;2022-11-21T03:45:00;21.45;;;4.78;;
35048;SDS011;21236;48.740;-3.446;2022-11-21T03:47:26;31.48;;;5.38;;
35048;SDS011;21236;48.740;-3.446;2022-11-21T03:49:52;24.55;;;5.38;;
35048;SDS011;21236;48.740;-3.446;2022-11-21T03:52:18;34.70;;;5.30;;
35048;SDS011;21236;48.740;-3.446;2022-11-21T03:54:45;26.33;;;6.43;;
35048;SDS011;21236;48.740;-3.446;2022-11-21T03:57:11;29.65;;;5.65;;
35048;SDS011;21236;48.740;-3.446;2022-11-21T03:59:37;34.88;;;6.65;;
35048;SDS011;21236;48.740;-3.446;2022-11-21T04:02:03;42.60;;;5.97;;
35048;SDS011;21236;48.740;-3.446;2022-11-21T04:04:29;25.77;;;5.28;;
35048;SDS011;21236;48.740;-3.446;2022-11-21T04:06:55;39.35;;;5.53;;
35048;SDS011;21236;48.740;-3.446;2022-11-21T04:09:21;29.98;;;5.25;;
35048;SDS011;21236;48.740;-3.446;2022-11-21T04:11:47;37.58;;;5.10;;
35048;SDS011;21236;48.740;-3.446;2022-11-21T04:14:13;26.02;;;5.20;;
35048;SDS011;21236;48.740;-3.446;2022-11-21T04:16:39;33.33;;;5.70;;
35048;SDS011;21236;48.740;-3.446;2022-11-21T04:19:05;26.40;;;5.00;;
35048;SDS011;21236;48.740;-3.446;2022-11-21T04:21:31;36.65;;;5.50;;
35048;SDS011;21236;48.740;-3.446;2022-11-21T04:23:58;29.02;;;5.45;;
35048;SDS011;21236;48.740;-3.446;2022-11-21T04:26:24;30.30;;;5.28;;
35048;SDS011;21236;48.740;-3.446;2022-11-21T04:28:50;34.70;;;5.20;;
35048;SDS011;21236;48.740;-3.446;2022-11-21T04:31:16;28.38;;;4.85;;
35048;SDS011;21236;48.740;-3.446;2022-11-21T04:33:42;37.35;;;5.75;;
35048;SDS011;21236;48.740;-3.446;2022-11-21T04:36:08;34.10;;;5.35;;
35048;SDS011;21236;48.740;-3.446;2022-11-21T04:38:34;39.53;;;4.85;;
35048;SDS011;21236;48.740;-3.446;2022-11-21T04:41:00;30.92;;;5.30;;
35048;SDS011;21236;48.740;-3.446;2022-11-21T04:43:27;42.50;;;5.45;;
35048;SDS011;21236;48.740;-3.446;2022-11-21T04:45:53;29.88;;;5.25;;
35048;SDS011;21236;48.740;-3.446;2022-11-21T04:48:19;36.20;;;5.93;;
35048;SDS011;21236;48.740;-3.446;2022-11-21T04:50:45;34.20;;;5.28;;
35048;SDS011;21236;48.740;-3.446;2022-11-21T04:53:11;30.85;;;5.47;;
35048;SDS011;21236;48.740;-3.446;2022-11-21T04:55:37;39.72;;;5.45;;
35048;SDS011;21236;48.740;-3.446;2022-11-21T04:58:03;35.67;;;5.85;;
35048;SDS011;21236;48.740;-3.446;2022-11-21T05:00:30;30.65;;;5.75;;
35048;SDS011;21236;48.740;-3.446;2022-11-21T05:03:00;32.17;;;5.80;;
35048;SDS011;21236;48.740;-3.446;2022-11-21T05:05:26;32.33;;;7.45;;
35048;SDS011;21236;48.740;-3.446;2022-11-21T05:07:53;25.88;;;5.03;;
35048;SDS011;21236;48.740;-3.446;2022-11-21T05:10:19;33.22;;;5.75;;
35048;SDS011;21236;48.740;-3.446;2022-11-21T05:12:45;37.10;;;5.93;;
35048;SDS011;21236;48.740;-3.446;2022-11-21T05:15:30;36.13;;;5.18;;
35048;SDS011;21236;48.740;-3.446;2022-11-21T05:17:59;40.55;;;5.95;;
35048;SDS011;21236;48.740;-3.446;2022-11-21T05:20:25;31.58;;;5.47;;
35048;SDS011;21236;48.740;-3.446;2022-11-21T05:22:51;34.15;;;5.53;;
35048;SDS011;21236;48.740;-3.446;2022-11-21T05:25:17;37.58;;;8.38;;
35048;SDS011;21236;48.740;-3.446;2022-11-21T05:27:43;28.60;;;4.55;;
35048;SDS011;21236;48.740;-3.446;2022-11-21T05:30:10;32.45;;;5.55;;
35048;SDS011;21236;48.740;-3.446;2022-11-21T05:32:36;31.45;;;6.00;;
35048;SDS011;21236;48.740;-3.446;2022-11-21T05:35:02;23.23;;;4.43;;
35048;SDS011;21236;48.740;-3.446;2022-11-21T05:37:29;31.52;;;5.95;;
35048;SDS011;21236;48.740;-3.446;2022-11-21T05:39:55;36.45;;;7.90;;
35048;SDS011;21236;48.740;-3.446;2022-11-21T05:42:21;25.58;;;5.28;;
35048;SDS011;21236;48.740;-3.446;2022-11-21T05:45:07;30.55;;;5.30;;
35048;SDS011;21236;48.740;-3.446;2022-11-21T05:47:34;18.77;;;4.80;;
35048;SDS011;21236;48.740;-3.446;2022-11-21T05:50:00;20.40;;;3.63;;
35048;SDS011;21236;48.740;-3.446;2022-11-21T05:52:26;21.08;;;4.07;;
35048;SDS011;21236;48.740;-3.446;2022-11-21T05:54:53;29.23;;;3.42;;
35048;SDS011;21236;48.740;-3.446;2022-11-21T05:57:19;26.58;;;3.65;;
35048;SDS011;21236;48.740;-3.446;2022-11-21T05:59:45;26.15;;;3.88;;
35048;SDS011;21236;48.740;-3.446;2022-11-21T06:02:11;20.08;;;4.10;;
35048;SDS011;21236;48.740;-3.446;2022-11-21T06:04:55;27.40;;;5.10;;
35048;SDS011;21236;48.740;-3.446;2022-11-21T06:07:21;25.42;;;3.60;;
35048;SDS011;21236;48.740;-3.446;2022-11-21T06:09:48;18.85;;;3.83;;
35048;SDS011;21236;48.740;-3.446;2022-11-21T06:12:14;19.98;;;3.58;;
35048;SDS011;21236;48.740;-3.446;2022-11-21T06:14:40;11.50;;;2.42;;
35048;SDS011;21236;48.740;-3.446;2022-11-21T06:17:06;17.73;;;3.92;;
35048;SDS011;21236;48.740;-3.446;2022-11-21T06:19:32;17.75;;;2.70;;
35048;SDS011;21236;48.740;-3.446;2022-11-21T06:21:58;14.23;;;2.90;;
35048;SDS011;21236;48.740;-3.446;2022-11-21T06:24:24;17.00;;;2.60;;
35048;SDS011;21236;48.740;-3.446;2022-11-21T06:26:50;13.30;;;2.33;;
35048;SDS011;21236;48.740;-3.446;2022-11-21T06:29:16;11.32;;;2.55;;
35048;SDS011;21236;48.740;-3.446;2022-11-21T06:31:46;11.43;;;2.45;;
35048;SDS011;21236;48.740;-3.446;2022-11-21T06:34:12;10.73;;;1.85;;
35048;SDS011;21236;48.740;-3.446;2022-11-21T06:36:38;10.90;;;2.28;;
35048;SDS011;21236;48.740;-3.446;2022-11-21T06:39:04;10.45;;;2.15;;
35048;SDS011;21236;48.740;-3.446;2022-11-21T06:41:30;12.80;;;1.98;;
35048;SDS011;21236;48.740;-3.446;2022-11-21T06:43:59;13.60;;;2.47;;
35048;SDS011;21236;48.740;-3.446;2022-11-21T06:46:26;7.05;;;2.10;;
35048;SDS011;21236;48.740;-3.446;2022-11-21T06:48:52;10.80;;;2.10;;
35048;SDS011;21236;48.740;-3.446;2022-11-21T06:51:19;7.95;;;1.50;;
35048;SDS011;21236;48.740;-3.446;2022-11-21T06:53:46;5.50;;;1.67;;
35048;SDS011;21236;48.740;-3.446;2022-11-21T06:56:13;4.57;;;1.30;;
35048;SDS011;21236;48.740;-3.446;2022-11-21T06:58:39;9.43;;;1.25;;
35048;SDS011;21236;48.740;-3.446;2022-11-21T07:01:07;4.05;;;1.42;;
35048;SDS011;21236;48.740;-3.446;2022-11-21T07:03:34;7.53;;;1.58;;
35048;SDS011;21236;48.740;-3.446;2022-11-21T07:06:01;5.07;;;1.40;;
35048;SDS011;21236;48.740;-3.446;2022-11-21T07:08:28;7.45;;;1.65;;
35048;SDS011;21236;48.740;-3.446;2022-11-21T07:10:54;10.00;;;1.88;;
35048;SDS011;21236;48.740;-3.446;2022-11-21T07:13:20;5.38;;;1.02;;
35048;SDS011;21236;48.740;-3.446;2022-11-21T07:15:47;8.57;;;1.48;;
35048;SDS011;21236;48.740;-3.446;2022-11-21T07:18:14;6.78;;;1.10;;
35048;SDS011;21236;48.740;-3.446;2022-11-21T07:20:40;2.95;;;0.90;;
35048;SDS011;21236;48.740;-3.446;2022-11-21T07:23:07;4.35;;;1.13;;
35048;SDS011;21236;48.740;-3.446;2022-11-21T07:25:33;3.65;;;0.98;;
35048;SDS011;21236;48.740;-3.446;2022-11-21T07:28:00;3.20;;;0.77;;
35048;SDS011;21236;48.740;-3.446;2022-11-21T07:30:26;3.50;;;1.00;;
35048;SDS011;21236;48.740;-3.446;2022-11-21T07:35:22;1.48;;;0.55;;
35048;SDS011;21236;48.740;-3.446;2022-11-21T07:37:48;5.35;;;0.75;;
35048;SDS011;21236;48.740;-3.446;2022-11-21T07:40:14;2.45;;;0.98;;
35048;SDS011;21236;48.740;-3.446;2022-11-21T07:42:40;1.85;;;0.65;;
35048;SDS011;21236;48.740;-3.446;2022-11-21T07:45:07;1.98;;;0.70;;
35048;SDS011;21236;48.740;-3.446;2022-11-21T07:47:33;2.00;;;0.90;;
35048;SDS011;21236;48.740;-3.446;2022-11-21T07:49:59;2.97;;;0.70;;
35048;SDS011;21236;48.740;-3.446;2022-11-21T07:52:25;3.45;;;0.80;;
35048;SDS011;21236;48.740;-3.446;2022-11-21T07:54:54;6.13;;;1.08;;
35048;SDS011;21236;48.740;-3.446;2022-11-21T07:57:20;4.18;;;0.80;;
35048;SDS011;21236;48.740;-3.446;2022-11-21T07:59:46;1.33;;;0.57;;
35048;SDS011;21236;48.740;-3.446;2022-11-21T08:02:22;3.13;;;0.80;;
35048;SDS011;21236;48.740;-3.446;2022-11-21T08:04:49;3.78;;;0.57;;
35048;SDS011;21236;48.740;-3.446;2022-11-21T08:07:15;2.05;;;0.45;;
35048;SDS011;21236;48.740;-3.446;2022-11-21T08:09:42;1.10;;;0.45;;
35048;SDS011;21236;48.740;-3.446;2022-11-21T08:12:08;0.30;;;0.30;;
35048;SDS011;21236;48.740;-3.446;2022-11-21T08:14:35;2.33;;;0.40;;
35048;SDS011;21236;48.740;-3.446;2022-11-21T08:17:01;2.33;;;0.40;;
35048;SDS011;21236;48.740;-3.446;2022-11-21T08:19:27;2.40;;;0.75;;
35048;SDS011;21236;48.740;-3.446;2022-11-21T08:21:53;1.40;;;0.40;;
35048;SDS011;21236;48.740;-3.446;2022-11-21T08:24:19;3.50;;;0.60;;
35048;SDS011;21236;48.740;-3.446;2022-11-21T08:26:46;1.75;;;0.30;;
35048;SDS011;21236;48.740;-3.446;2022-11-21T08:29:12;0.70;;;0.43;;
35048;SDS011;21236;48.740;-3.446;2022-11-21T08:31:39;1.58;;;0.32;;
35048;SDS011;21236;48.740;-3.446;2022-11-21T08:34:06;0.50;;;0.50;;
35048;SDS011;21236;48.740;-3.446;2022-11-21T08:36:32;1.88;;;1.33;;
35048;SDS011;21236;48.740;-3.446;2022-11-21T08:38:58;2.90;;;0.50;;
35048;SDS011;21236;48.740;-3.446;2022-11-21T08:41:24;1.38;;;0.52;;
35048;SDS011;21236;48.740;-3.446;2022-11-21T08:44:09;2.45;;;0.70;;
35048;SDS011;21236;48.740;-3.446;2022-11-21T08:46:35;0.60;;;0.50;;
35048;SDS011;21236;48.740;-3.446;2022-11-21T08:49:05;0.65;;;0.60;;
35048;SDS011;21236;48.740;-3.446;2022-11-21T08:51:31;0.50;;;0.32;;
35048;SDS011;21236;48.740;-3.446;2022-11-21T08:53:58;0.95;;;0.75;;
35048;SDS011;21236;48.740;-3.446;2022-11-21T08:56:24;0.80;;;0.60;;
35048;SDS011;21236;48.740;-3.446;2022-11-21T08:58:50;0.43;;;0.30;;
35048;SDS011;21236;48.740;-3.446;2022-11-21T09:01:16;3.10;;;0.40;;
35048;SDS011;21236;48.740;-3.446;2022-11-21T09:03:43;1.13;;;0.52;;
35048;SDS011;21236;48.740;-3.446;2022-11-21T09:06:09;13.93;;;2.58;;
35048;SDS011;21236;48.740;-3.446;2022-11-21T09:08:36;45.38;;;7.07;;
35048;SDS011;21236;48.740;-3.446;2022-11-21T09:11:06;56.92;;;8.57;;
35048;SDS011;21236;48.740;-3.446;2022-11-21T09:13:33;61.60;;;7.63;;
35048;SDS011;21236;48.740;-3.446;2022-11-21T09:15:59;49.20;;;8.35;;
35048;SDS011;21236;48.740;-3.446;2022-11-21T09:18:44;65.13;;;9.43;;
35048;SDS011;21236;48.740;-3.446;2022-11-21T09:21:14;59.70;;;10.00;;
35048;SDS011;21236;48.740;-3.446;2022-11-21T09:23:41;46.53;;;8.15;;
35048;SDS011;21236;48.740;-3.446;2022-11-21T09:26:07;59.65;;;9.23;;
35048;SDS011;21236;48.740;-3.446;2022-11-21T09:28:34;51.35;;;8.20;;
35048;SDS011;21236;48.740;-3.446;2022-11-21T09:31:03;50.40;;;7.45;;
35048;SDS011;21236;48.740;-3.446;2022-11-21T09:33:29;47.38;;;6.65;;
35048;SDS011;21236;48.740;-3.446;2022-11-21T09:35:58;55.30;;;9.38;;
35048;SDS011;21236;48.740;-3.446;2022-11-21T09:38:25;55.78;;;8.32;;
35048;SDS011;21236;48.740;-3.446;2022-11-21T09:40:53;28.58;;;4.75;;
35048;SDS011;21236;48.740;-3.446;2022-11-21T09:45:50;28.83;;;5.57;;
35048;SDS011;21236;48.740;-3.446;2022-11-21T09:48:26;41.10;;;6.55;;
35048;SDS011;21236;48.740;-3.446;2022-11-21T09:50:54;54.58;;;9.05;;
35048;SDS011;21236;48.740;-3.446;2022-11-21T09:53:32;43.72;;;7.28;;
35048;SDS011;21236;48.740;-3.446;2022-11-21T09:56:34;50.30;;;7.38;;
35048;SDS011;21236;48.740;-3.446;2022-11-21T09:59:05;63.10;;;7.35;;
35048;SDS011;21236;48.740;-3.446;2022-11-21T10:01:35;47.35;;;8.02;;
35048;SDS011;21236;48.740;-3.446;2022-11-21T10:04:02;56.88;;;8.88;;
35048;SDS011;21236;48.740;-3.446;2022-11-21T10:06:29;44.63;;;6.63;;
35048;SDS011;21236;48.740;-3.446;2022-11-21T10:14:40;48.25;;;6.28;;
35048;SDS011;21236;48.740;-3.446;2022-11-21T10:17:18;41.35;;;6.90;;
35048;SDS011;21236;48.740;-3.446;2022-11-21T10:22:21;30.52;;;4.90;;
35048;SDS011;21236;48.740;-3.446;2022-11-21T10:25:24;46.35;;;6.80;;
35048;SDS011;21236;48.740;-3.446;2022-11-21T10:30:16;32.15;;;5.40;;
35048;SDS011;21236;48.740;-3.446;2022-11-21T10:32:43;32.42;;;5.53;;
35048;SDS011;21236;48.740;-3.446;2022-11-21T10:37:52;25.27;;;4.95;;
35048;SDS011;21236;48.740;-3.446;2022-11-21T10:40:31;32.95;;;5.95;;
35048;SDS011;21236;48.740;-3.446;2022-11-21T10:42:59;40.45;;;5.38;;
35048;SDS011;21236;48.740;-3.446;2022-11-21T10:45:50;21.60;;;4.40;;
35048;SDS011;21236;48.740;-3.446;2022-11-21T10:48:16;35.13;;;6.15;;
35048;SDS011;21236;48.740;-3.446;2022-11-21T10:53:26;32.28;;;4.85;;
35048;SDS011;21236;48.740;-3.446;2022-11-21T10:56:32;22.38;;;3.92;;
35048;SDS011;21236;48.740;-3.446;2022-11-21T10:58:59;21.65;;;4.45;;
35048;SDS011;21236;48.740;-3.446;2022-11-21T11:01:36;34.58;;;5.68;;
35048;SDS011;21236;48.740;-3.446;2022-11-21T11:06:31;22.65;;;4.00;;
35048;SDS011;21236;48.740;-3.446;2022-11-21T11:08:57;41.85;;;5.68;;
35048;SDS011;21236;48.740;-3.446;2022-11-21T11:11:23;31.50;;;5.55;;
35048;SDS011;21236;48.740;-3.446;2022-11-21T11:16:18;28.75;;;5.60;;
35048;SDS011;21236;48.740;-3.446;2022-11-21T11:31:48;20.83;;;3.60;;
35048;SDS011;21236;48.740;-3.446;2022-11-21T11:34:14;16.73;;;2.83;;
35048;SDS011;21236;48.740;-3.446;2022-11-21T11:36:48;18.08;;;4.03;;
35048;SDS011;21236;48.740;-3.446;2022-11-21T11:47:57;25.98;;;4.32;;
35048;SDS011;21236;48.740;-3.446;2022-11-21T11:50:26;25.02;;;3.85;;
35048;SDS011;21236;48.740;-3.446;2022-11-21T11:53:05;24.25;;;4.45;;
35048;SDS011;21236;48.740;-3.446;2022-11-21T11:55:34;30.27;;;3.97;;
35048;SDS011;21236;48.740;-3.446;2022-11-21T11:58:03;20.05;;;3.97;;
35048;SDS011;21236;48.740;-3.446;2022-11-21T12:00:34;22.98;;;4.03;;
35048;SDS011;21236;48.740;-3.446;2022-11-21T12:05:30;28.63;;;4.80;;
35048;SDS011;21236;48.740;-3.446;2022-11-21T12:08:16;20.50;;;3.78;;
35048;SDS011;21236;48.740;-3.446;2022-11-21T12:10:47;23.25;;;5.80;;
35048;SDS011;21236;48.740;-3.446;2022-11-21T12:13:33;24.67;;;4.28;;
35048;SDS011;21236;48.740;-3.446;2022-11-21T12:16:02;17.05;;;3.65;;
35048;SDS011;21236;48.740;-3.446;2022-11-21T12:19:14;18.95;;;3.33;;
35048;SDS011;21236;48.740;-3.446;2022-11-21T12:21:16;16.45;;;3.03;;
35048;SDS011;21236;48.740;-3.446;2022-11-21T12:34:00;23.10;;;3.42;;
35048;SDS011;21236;48.740;-3.446;2022-11-21T12:36:31;24.08;;;3.90;;
35048;SDS011;21236;48.740;-3.446;2022-11-21T12:49:52;23.00;;;3.85;;
35048;SDS011;21236;48.740;-3.446;2022-11-21T12:52:41;20.85;;;3.28;;
35048;SDS011;21236;48.740;-3.446;2022-11-21T12:55:30;23.77;;;3.72;;
35048;SDS011;21236;48.740;-3.446;2022-11-21T13:05:35;16.88;;;2.90;;
35048;SDS011;21236;48.740;-3.446;2022-11-21T13:08:12;9.05;;;2.33;;
35048;SDS011;21236;48.740;-3.446;2022-11-21T13:10:41;6.47;;;1.70;;
35048;SDS011;21236;48.740;-3.446;2022-11-21T13:18:03;15.20;;;1.80;;
35048;SDS011;21236;48.740;-3.446;2022-11-21T13:20:31;9.48;;;2.08;;
35048;SDS011;21236;48.740;-3.446;2022-11-21T13:22:59;11.20;;;2.55;;
35048;SDS011;21236;48.740;-3.446;2022-11-21T13:30:49;21.98;;;3.95;;
35048;SDS011;21236;48.740;-3.446;2022-11-21T13:36:01;17.10;;;2.88;;
35048;SDS011;21236;48.740;-3.446;2022-11-21T13:38:30;18.65;;;3.55;;
35048;SDS011;21236;48.740;-3.446;2022-11-21T13:40:56;19.83;;;3.38;;
35048;SDS011;21236;48.740;-3.446;2022-11-21T13:43:41;8.90;;;2.08;;
35048;SDS011;21236;48.740;-3.446;2022-11-21T13:46:08;11.85;;;1.95;;
35048;SDS011;21236;48.740;-3.446;2022-11-21T14:01:36;11.38;;;2.75;;
35048;SDS011;21236;48.740;-3.446;2022-11-21T14:06:41;12.63;;;3.33;;
35048;SDS011;21236;48.740;-3.446;2022-11-21T14:11:43;23.17;;;4.40;;
35048;SDS011;21236;48.740;-3.446;2022-11-21T14:14:21;12.27;;;3.22;;
35048;SDS011;21236;48.740;-3.446;2022-11-21T14:16:48;14.68;;;2.53;;
35048;SDS011;21236;48.740;-3.446;2022-11-21T14:19:17;22.08;;;3.85;;
35048;SDS011;21236;48.740;-3.446;2022-11-21T14:21:44;14.52;;;2.67;;
35048;SDS011;21236;48.740;-3.446;2022-11-21T14:24:12;17.38;;;2.83;;
35048;SDS011;21236;48.740;-3.446;2022-11-21T14:26:40;12.73;;;2.85;;
35048;SDS011;21236;48.740;-3.446;2022-11-21T14:29:18;20.63;;;3.13;;
35048;SDS011;21236;48.740;-3.446;2022-11-21T14:31:48;16.98;;;3.75;;
35048;SDS011;21236;48.740;-3.446;2022-11-21T14:34:27;28.33;;;4.22;;
35048;SDS011;21236;48.740;-3.446;2022-11-21T14:36:53;24.88;;;4.55;;
35048;SDS011;21236;48.740;-3.446;2022-11-21T14:39:21;29.42;;;4.55;;
35048;SDS011;21236;48.740;-3.446;2022-11-21T14:41:50;41.22;;;4.00;;
35048;SDS011;21236;48.740;-3.446;2022-11-21T14:44:17;35.15;;;3.60;;
35048;SDS011;21236;48.740;-3.446;2022-11-21T14:46:44;28.00;;;4.53;;
35048;SDS011;21236;48.740;-3.446;2022-11-21T14:51:40;20.30;;;3.13;;
35048;SDS011;21236;48.740;-3.446;2022-11-21T14:54:13;17.17;;;2.90;;
35048;SDS011;21236;48.740;-3.446;2022-11-21T14:56:40;22.35;;;3.65;;
35048;SDS011;21236;48.740;-3.446;2022-11-21T14:59:11;16.98;;;3.50;;
35048;SDS011;21236;48.740;-3.446;2022-11-21T15:01:38;13.35;;;2.88;;
35048;SDS011;21236;48.740;-3.446;2022-11-21T15:04:05;21.83;;;3.05;;
35048;SDS011;21236;48.740;-3.446;2022-11-21T15:06:39;19.38;;;3.08;;
35048;SDS011;21236;48.740;-3.446;2022-11-21T15:09:10;16.95;;;3.08;;
35048;SDS011;21236;48.740;-3.446;2022-11-21T15:11:38;19.50;;;4.63;;
35048;SDS011;21236;48.740;-3.446;2022-11-21T15:14:15;31.65;;;5.93;;
35048;SDS011;21236;48.740;-3.446;2022-11-21T15:16:44;23.30;;;3.40;;
35048;SDS011;21236;48.740;-3.446;2022-11-21T15:19:10;29.30;;;3.75;;
35048;SDS011;21236;48.740;-3.446;2022-11-21T15:21:42;16.85;;;3.50;;
35048;SDS011;21236;48.740;-3.446;2022-11-21T15:24:26;27.27;;;3.47;;
35048;SDS011;21236;48.740;-3.446;2022-11-21T15:26:55;23.42;;;4.90;;
35048;SDS011;21236;48.740;-3.446;2022-11-21T15:29:21;22.98;;;3.20;;
35048;SDS011;21236;48.740;-3.446;2022-11-21T15:32:09;20.83;;;3.40;;
35048;SDS011;21236;48.740;-3.446;2022-11-21T15:34:39;27.42;;;4.70;;
35048;SDS011;21236;48.740;-3.446;2022-11-21T15:37:14;21.63;;;3.15;;
35048;SDS011;21236;48.740;-3.446;2022-11-21T15:39:41;21.58;;;3.20;;
35048;SDS011;21236;48.740;-3.446;2022-11-21T15:45:00;17.05;;;3.25;;
35048;SDS011;21236;48.740;-3.446;2022-11-21T15:47:26;17.20;;;3.83;;
35048;SDS011;21236;48.740;-3.446;2022-11-21T15:49:53;26.02;;;4.60;;
35048;SDS011;21236;48.740;-3.446;2022-11-21T15:52:19;28.35;;;5.63;;
35048;SDS011;21236;48.740;-3.446;2022-11-21T15:54:45;26.85;;;3.25;;
35048;SDS011;21236;48.740;-3.446;2022-11-21T15:57:12;14.35;;;3.40;;
35048;SDS011;21236;48.740;-3.446;2022-11-21T15:59:39;19.77;;;3.55;;
35048;SDS011;21236;48.740;-3.446;2022-11-21T16:02:05;21.42;;;4.45;;
35048;SDS011;21236;48.740;-3.446;2022-11-21T16:04:31;17.30;;;4.28;;
35048;SDS011;21236;48.740;-3.446;2022-11-21T16:06:57;17.45;;;3.63;;
35048;SDS011;21236;48.740;-3.446;2022-11-21T16:09:23;28.70;;;4.85;;
35048;SDS011;21236;48.740;-3.446;2022-11-21T16:11:49;25.95;;;6.00;;
35048;SDS011;21236;48.740;-3.446;2022-11-21T16:14:16;16.60;;;3.25;;
35048;SDS011;21236;48.740;-3.446;2022-11-21T16:16:44;26.08;;;4.53;;
35048;SDS011;21236;48.740;-3.446;2022-11-21T16:19:11;20.40;;;4.15;;
35048;SDS011;21236;48.740;-3.446;2022-11-21T16:21:37;18.10;;;3.85;;
35048;SDS011;21236;48.740;-3.446;2022-11-21T16:24:03;27.10;;;5.18;;
35048;SDS011;21236;48.740;-3.446;2022-11-21T16:26:29;19.92;;;4.18;;
35048;SDS011;21236;48.740;-3.446;2022-11-21T16:28:57;18.65;;;6.85;;
35048;SDS011;21236;48.740;-3.446;2022-11-21T16:31:25;22.00;;;4.13;;
35048;SDS011;21236;48.740;-3.446;2022-11-21T16:33:51;21.02;;;5.32;;
35048;SDS011;21236;48.740;-3.446;2022-11-21T16:36:22;18.80;;;4.35;;
35048;SDS011;21236;48.740;-3.446;2022-11-21T16:38:48;21.35;;;4.78;;